Terminal Aerodrome Forecast
Issued by NWS

Home | Current Version | Previous Version | Text Only | Print | Product List | Glossary On
Versions: 1 2 3 4 5 6 7 8 9 10 11 12 13 14 15 16 17 18 19
676
FTUS46 KMTR 141728
TAFSTS
TAF
KSTS 141728Z 1418/1518 00000KT P6SM FEW200
     FM142100 14003KT P6SM FEW200
     FM150200 00000KT P6SM SCT200
     FM150700 00000KT 1/2SM FG VV002
      TEMPO 1512/1516 1SM BR BKN002
     FM151600 00000KT P6SM FEW200=

USA.gov is the U.S. government's official web portal to all federal, state and local government web resources and services.